This is the latest recevied weather packets stored in our database for station/object K6GKS. If no packets are shown the sender has not sent any weather packets the latest 10 day(s).
| Time | Temp. | Humidity | Pressure | Rain* | Wind** | Luminosity | Snow |
|---|---|---|---|---|---|---|---|
| 1787687103 | 27.78° C | 44% | 1015 hPa | 0 mm | - | - | - |
| 1787686922 | 27.22° C | 45% | 1014.9 hPa | 0 mm | - | - | - |
| 1787686743 | 27.22° C | 45% | 1015 hPa | 0 mm | - | - | - |
| 1787686563 | 27.78° C | 44% | 1015.1 hPa | 0 mm | - | - | - |
| 1787686383 | 27.22° C | 47% | 1015.1 hPa | 0 mm | - | - | - |
| 1787686203 | 27.22° C | 44% | 1015.4 hPa | 0 mm | - | - | - |
| 1787686022 | 27.78° C | 43% | 1015.4 hPa | 0 mm | - | - | - |
| 1787685843 | 27.22° C | 45% | 1015.2 hPa | 0 mm | - | - | - |
| 1787685663 | 26.67° C | 46% | 1015.4 hPa | 0 mm | - | - | - |
| 1787685482 | 26.67° C | 46% | 1015.4 hPa | 0 mm | - | - | - |
| 1787685302 | 26.67° C | 46% | 1015.5 hPa | 0 mm | - | - | - |
| 1787685122 | 26.67° C | 46% | 1015.5 hPa | 0 mm | - | - | - |
| 1787684943 | 26.67° C | 46% | 1015.6 hPa | 0 mm | - | - | - |
| 1787684762 | 26.67° C | 46% | 1015.7 hPa | 0 mm | - | - | - |
| 1787684582 | 26.67° C | 48% | 1015.8 hPa | 0 mm | - | - | - |
| 1787684403 | 26.11° C | 48% | 1015.9 hPa | 0 mm | - | - | - |
| 1787684222 | 25.56° C | 50% | 1015.9 hPa | 0 mm | - | - | - |
| 1787684043 | 25.56° C | 51% | 1015.7 hPa | 0 mm | - | - | - |
| 1787683862 | 25.56° C | 51% | 1015.9 hPa | 0 mm | - | - | - |
| 1787683683 | 25° C | 53% | 1015.9 hPa | 0 mm | - | - | - |
| 1787683503 | 25° C | 53% | 1015.9 hPa | 0 mm | - | - | - |
| 1787683321 | 25° C | 53% | 1015.9 hPa | 0 mm | - | - | - |
| 1787683143 | 24.44° C | 54% | 1015.9 hPa | 0 mm | - | - | - |
| 1787682962 | 25.56° C | 52% | 1015.9 hPa | 0 mm | - | - | - |
| 1787682783 | 25.56° C | 52% | 1015.8 hPa | 0 mm | - | - | - |
* Rain latest hour (hover to see other rain measurements)
** Current wind speed in m/s (hover to see current wind gust speed)